sensor_id;sensor_type;location;lat;lon;timestamp;pressure;altitude;pressure_sealevel;temperature;humidity
60061;BME280;45933;51.336;12.612;2023-04-22T00:00:18;99619.50;;;13.80;43.55
60061;BME280;45933;51.336;12.612;2023-04-22T00:02:43;99623.88;;;13.79;43.76
60061;BME280;45933;51.336;12.612;2023-04-22T00:05:09;99619.53;;;13.78;43.78
60061;BME280;45933;51.336;12.612;2023-04-22T00:07:40;99622.16;;;13.78;44.59
60061;BME280;45933;51.336;12.612;2023-04-22T00:10:08;99617.09;;;13.72;43.76
60061;BME280;45933;51.336;12.612;2023-04-22T00:12:33;99615.31;;;13.73;44.01
60061;BME280;45933;51.336;12.612;2023-04-22T00:14:59;99615.31;;;13.73;44.04
60061;BME280;45933;51.336;12.612;2023-04-22T00:17:24;99611.00;;;13.72;43.67
60061;BME280;45933;51.336;12.612;2023-04-22T00:19:49;99610.16;;;13.70;44.06
60061;BME280;45933;51.336;12.612;2023-04-22T00:22:15;99600.69;;;13.66;44.09
60061;BME280;45933;51.336;12.612;2023-04-22T00:24:40;99602.41;;;13.65;44.29
60061;BME280;45933;51.336;12.612;2023-04-22T00:27:05;99600.78;;;13.61;44.30
60061;BME280;45933;51.336;12.612;2023-04-22T00:29:32;99595.56;;;13.61;44.12
60061;BME280;45933;51.336;12.612;2023-04-22T00:31:57;99586.03;;;13.57;44.43
60061;BME280;45933;51.336;12.612;2023-04-22T00:34:22;99589.47;;;13.60;44.74
60061;BME280;45933;51.336;12.612;2023-04-22T00:36:47;99588.66;;;13.57;44.13
60061;BME280;45933;51.336;12.612;2023-04-22T00:39:13;99592.13;;;13.57;44.15
60061;BME280;45933;51.336;12.612;2023-04-22T00:41:39;99591.28;;;13.57;44.46
60061;BME280;45933;51.336;12.612;2023-04-22T00:44:06;99594.00;;;13.52;44.83
60061;BME280;45933;51.336;12.612;2023-04-22T00:46:32;99593.06;;;13.55;44.34
60061;BME280;45933;51.336;12.612;2023-04-22T00:48:58;99593.09;;;13.53;44.41
60061;BME280;45933;51.336;12.612;2023-04-22T00:51:24;99575.72;;;13.51;44.83
60061;BME280;45933;51.336;12.612;2023-04-22T00:53:50;99588.84;;;13.49;44.57
60061;BME280;45933;51.336;12.612;2023-04-22T00:56:16;99582.75;;;13.49;44.63
60061;BME280;45933;51.336;12.612;2023-04-22T00:58:42;99577.59;;;13.46;44.71
60061;BME280;45933;51.336;12.612;2023-04-22T01:01:07;99581.13;;;13.45;44.65
60061;BME280;45933;51.336;12.612;2023-04-22T01:03:35;99586.31;;;13.46;44.97
60061;BME280;45933;51.336;12.612;2023-04-22T01:06:02;99581.25;;;13.40;44.58
60061;BME280;45933;51.336;12.612;2023-04-22T01:08:28;99580.34;;;13.41;44.56
60061;BME280;45933;51.336;12.612;2023-04-22T01:10:55;99575.22;;;13.37;45.07
60061;BME280;45933;51.336;12.612;2023-04-22T01:13:20;99576.13;;;13.36;45.19
60061;BME280;45933;51.336;12.612;2023-04-22T01:15:46;99570.94;;;13.32;45.02
60061;BME280;45933;51.336;12.612;2023-04-22T01:18:11;99575.38;;;13.30;44.90
60061;BME280;45933;51.336;12.612;2023-04-22T01:20:37;99574.53;;;13.28;44.90
60061;BME280;45933;51.336;12.612;2023-04-22T01:23:02;99573.75;;;13.25;45.07
60061;BME280;45933;51.336;12.612;2023-04-22T01:25:34;99572.91;;;13.24;45.10
60061;BME280;45933;51.336;12.612;2023-04-22T01:27:59;99572.06;;;13.24;44.91
60061;BME280;45933;51.336;12.612;2023-04-22T01:30:25;99572.06;;;13.22;45.19
60061;BME280;45933;51.336;12.612;2023-04-22T01:32:50;99568.59;;;13.22;45.10
60061;BME280;45933;51.336;12.612;2023-04-22T01:35:16;99569.47;;;13.21;45.71
60061;BME280;45933;51.336;12.612;2023-04-22T01:37:41;99570.38;;;13.20;45.34
60061;BME280;45933;51.336;12.612;2023-04-22T01:40:08;99560.88;;;13.16;45.31
60061;BME280;45933;51.336;12.612;2023-04-22T01:42:34;99560.91;;;13.14;45.26
60061;BME280;45933;51.336;12.612;2023-04-22T01:44:59;99561.81;;;13.13;45.43
60061;BME280;45933;51.336;12.612;2023-04-22T01:47:24;99567.16;;;13.08;45.21
60061;BME280;45933;51.336;12.612;2023-04-22T01:49:54;99565.31;;;13.12;45.43
60061;BME280;45933;51.336;12.612;2023-04-22T01:52:19;99568.00;;;13.09;45.71
60061;BME280;45933;51.336;12.612;2023-04-22T01:54:44;99564.53;;;13.08;45.37
60061;BME280;45933;51.336;12.612;2023-04-22T01:57:11;99561.94;;;13.07;45.41
60061;BME280;45933;51.336;12.612;2023-04-22T01:59:38;99562.88;;;13.04;44.80
60061;BME280;45933;51.336;12.612;2023-04-22T02:02:03;99563.84;;;13.00;45.53
60061;BME280;45933;51.336;12.612;2023-04-22T02:04:28;99561.31;;;12.97;45.58
60061;BME280;45933;51.336;12.612;2023-04-22T02:06:54;99563.03;;;12.98;45.43
60061;BME280;45933;51.336;12.612;2023-04-22T02:09:19;99556.97;;;12.96;45.77
60061;BME280;45933;51.336;12.612;2023-04-22T02:11:44;99551.81;;;12.93;45.56
60061;BME280;45933;51.336;12.612;2023-04-22T02:14:10;99552.72;;;12.92;45.67
60061;BME280;45933;51.336;12.612;2023-04-22T02:16:35;99551.84;;;12.92;45.65
60061;BME280;45933;51.336;12.612;2023-04-22T02:19:00;99552.78;;;12.89;45.84
60061;BME280;45933;51.336;12.612;2023-04-22T02:21:30;99551.97;;;12.87;46.02
60061;BME280;45933;51.336;12.612;2023-04-22T02:23:56;99552.97;;;12.80;45.85
60061;BME280;45933;51.336;12.612;2023-04-22T02:26:21;99557.34;;;12.79;46.12
60061;BME280;45933;51.336;12.612;2023-04-22T02:28:47;99552.31;;;12.72;46.71
60061;BME280;45933;51.336;12.612;2023-04-22T02:31:13;99557.56;;;12.70;46.29
60061;BME280;45933;51.336;12.612;2023-04-22T02:33:38;99553.31;;;12.65;46.32
60061;BME280;45933;51.336;12.612;2023-04-22T02:36:03;99548.09;;;12.65;46.43
60061;BME280;45933;51.336;12.612;2023-04-22T02:38:28;99549.94;;;12.61;46.28
60061;BME280;45933;51.336;12.612;2023-04-22T02:40:54;99549.13;;;12.57;46.69
60061;BME280;45933;51.336;12.612;2023-04-22T02:43:19;99551.84;;;12.53;46.96
60061;BME280;45933;51.336;12.612;2023-04-22T02:45:44;99551.03;;;12.51;46.68
60061;BME280;45933;51.336;12.612;2023-04-22T02:48:09;99545.88;;;12.48;47.36
60061;BME280;45933;51.336;12.612;2023-04-22T02:50:35;99547.72;;;12.43;46.82
60061;BME280;45933;51.336;12.612;2023-04-22T02:53:00;99545.09;;;12.43;47.09
60061;BME280;45933;51.336;12.612;2023-04-22T02:55:25;99544.25;;;12.42;46.69
60061;BME280;45933;51.336;12.612;2023-04-22T02:57:51;99547.81;;;12.40;46.80
60061;BME280;45933;51.336;12.612;2023-04-22T03:00:16;99544.34;;;12.38;46.90
60061;BME280;45933;51.336;12.612;2023-04-22T03:02:41;99540.88;;;12.37;46.89
60061;BME280;45933;51.336;12.612;2023-04-22T03:05:07;99534.81;;;12.35;47.21
60061;BME280;45933;51.336;12.612;2023-04-22T03:07:32;99533.13;;;12.33;47.19
60061;BME280;45933;51.336;12.612;2023-04-22T03:09:57;99533.13;;;12.33;47.40
60061;BME280;45933;51.336;12.612;2023-04-22T03:12:23;99529.75;;;12.29;46.96
60061;BME280;45933;51.336;12.612;2023-04-22T03:14:49;99527.13;;;12.27;47.44
60061;BME280;45933;51.336;12.612;2023-04-22T03:17:14;99530.59;;;12.28;47.03
60061;BME280;45933;51.336;12.612;2023-04-22T03:19:39;99531.50;;;12.27;47.26
60061;BME280;45933;51.336;12.612;2023-04-22T03:22:05;99531.50;;;12.27;47.30
60061;BME280;45933;51.336;12.612;2023-04-22T03:24:30;99527.19;;;12.26;47.14
60061;BME280;45933;51.336;12.612;2023-04-22T03:26:55;99530.66;;;12.26;47.11
60061;BME280;45933;51.336;12.612;2023-04-22T03:29:21;99528.00;;;12.28;47.64
60061;BME280;45933;51.336;12.612;2023-04-22T03:31:46;99528.84;;;12.28;47.41
60061;BME280;45933;51.336;12.612;2023-04-22T03:34:11;99528.88;;;12.27;47.13
60061;BME280;45933;51.336;12.612;2023-04-22T03:36:36;99524.50;;;12.29;47.03
60061;BME280;45933;51.336;12.612;2023-04-22T03:39:02;99527.13;;;12.29;46.74
60061;BME280;45933;51.336;12.612;2023-04-22T03:41:27;99534.97;;;12.29;46.95
60061;BME280;45933;51.336;12.612;2023-04-22T03:43:52;99527.13;;;12.29;47.03
60061;BME280;45933;51.336;12.612;2023-04-22T03:46:17;99535.81;;;12.28;47.04
60061;BME280;45933;51.336;12.612;2023-04-22T03:48:43;99534.13;;;12.27;46.89
60061;BME280;45933;51.336;12.612;2023-04-22T03:51:08;99538.50;;;12.26;47.08
60061;BME280;45933;51.336;12.612;2023-04-22T03:53:33;99534.13;;;12.27;46.73
60061;BME280;45933;51.336;12.612;2023-04-22T03:55:58;99533.25;;;12.26;47.11
60061;BME280;45933;51.336;12.612;2023-04-22T03:58:24;99536.78;;;12.25;46.87
60061;BME280;45933;51.336;12.612;2023-04-22T04:00:49;99532.44;;;12.24;46.70
60061;BME280;45933;51.336;12.612;2023-04-22T04:03:14;99534.22;;;12.22;46.80
60061;BME280;45933;51.336;12.612;2023-04-22T04:05:40;99525.56;;;12.20;46.97
60061;BME280;45933;51.336;12.612;2023-04-22T04:08:05;99528.16;;;12.20;47.32
60061;BME280;45933;51.336;12.612;2023-04-22T04:10:30;99529.97;;;12.17;47.12
60061;BME280;45933;51.336;12.612;2023-04-22T04:12:56;99522.13;;;12.17;47.03
60061;BME280;45933;51.336;12.612;2023-04-22T04:15:22;99529.16;;;12.15;47.13
60061;BME280;45933;51.336;12.612;2023-04-22T04:17:47;99524.84;;;12.12;47.27
60061;BME280;45933;51.336;12.612;2023-04-22T04:20:13;99525.72;;;12.13;47.25
60061;BME280;45933;51.336;12.612;2023-04-22T04:22:38;99522.22;;;12.12;47.27
60061;BME280;45933;51.336;12.612;2023-04-22T04:25:04;99519.66;;;12.11;47.44
60061;BME280;45933;51.336;12.612;2023-04-22T04:27:31;99517.03;;;12.11;47.53
60061;BME280;45933;51.336;12.612;2023-04-22T04:29:56;99515.31;;;12.10;47.25
60061;BME280;45933;51.336;12.612;2023-04-22T04:32:22;99515.31;;;12.10;47.46
60061;BME280;45933;51.336;12.612;2023-04-22T04:34:48;99519.75;;;12.08;47.62
60061;BME280;45933;51.336;12.612;2023-04-22T04:37:13;99529.28;;;12.09;47.61
60061;BME280;45933;51.336;12.612;2023-04-22T04:39:38;99531.03;;;12.08;47.71
60061;BME280;45933;51.336;12.612;2023-04-22T04:42:04;99532.81;;;12.08;47.69
60061;BME280;45933;51.336;12.612;2023-04-22T04:44:29;99533.56;;;12.11;47.51
60061;BME280;45933;51.336;12.612;2023-04-22T04:46:58;99538.78;;;12.13;47.48
60061;BME280;45933;51.336;12.612;2023-04-22T04:49:23;99531.78;;;12.15;47.51
60061;BME280;45933;51.336;12.612;2023-04-22T04:51:49;99541.28;;;12.19;47.57
60061;BME280;45933;51.336;12.612;2023-04-22T04:54:14;99537.69;;;12.23;47.69
60061;BME280;45933;51.336;12.612;2023-04-22T04:56:40;99541.91;;;12.28;47.51
60061;BME280;45933;51.336;12.612;2023-04-22T04:59:05;99548.75;;;12.36;47.58
60061;BME280;45933;51.336;12.612;2023-04-22T05:01:30;99546.91;;;12.41;47.38
60061;BME280;45933;51.336;12.612;2023-04-22T05:03:56;99545.94;;;12.45;47.27
60061;BME280;45933;51.336;12.612;2023-04-22T05:06:21;99549.34;;;12.48;47.37
60061;BME280;45933;51.336;12.612;2023-04-22T05:08:46;99550.09;;;12.53;47.35
60061;BME280;45933;51.336;12.612;2023-04-22T05:11:12;99552.69;;;12.55;47.60
60061;BME280;45933;51.336;12.612;2023-04-22T05:13:37;99550.91;;;12.57;47.39
60061;BME280;45933;51.336;12.612;2023-04-22T05:16:02;99552.63;;;12.58;47.39
60061;BME280;45933;51.336;12.612;2023-04-22T05:18:28;99553.41;;;12.62;47.41
60061;BME280;45933;51.336;12.612;2023-04-22T05:20:53;99556.84;;;12.64;47.34
60061;BME280;45933;51.336;12.612;2023-04-22T05:23:18;99560.22;;;12.69;47.30
60061;BME280;45933;51.336;12.612;2023-04-22T05:25:44;99563.69;;;12.71;47.55
60061;BME280;45933;51.336;12.612;2023-04-22T05:28:09;99561.88;;;12.73;47.69
60061;BME280;45933;51.336;12.612;2023-04-22T05:30:34;99555.69;;;12.77;47.41
60061;BME280;45933;51.336;12.612;2023-04-22T05:32:59;99559.06;;;12.80;47.65
60061;BME280;45933;51.336;12.612;2023-04-22T05:35:25;99557.25;;;12.84;47.68
60061;BME280;45933;51.336;12.612;2023-04-22T05:37:50;99547.59;;;12.88;47.38
60061;BME280;45933;51.336;12.612;2023-04-22T05:40:16;99554.44;;;12.93;47.36
60061;BME280;45933;51.336;12.612;2023-04-22T05:42:41;99564.69;;;13.01;47.19
60061;BME280;45933;51.336;12.612;2023-04-22T05:45:07;99559.38;;;13.05;47.26
60061;BME280;45933;51.336;12.612;2023-04-22T05:47:33;99556.59;;;13.12;47.41
60061;BME280;45933;51.336;12.612;2023-04-22T05:49:58;99556.44;;;13.18;47.50
60061;BME280;45933;51.336;12.612;2023-04-22T05:52:23;99568.53;;;13.25;47.22
60061;BME280;45933;51.336;12.612;2023-04-22T05:54:56;99568.38;;;13.31;46.68
60061;BME280;45933;51.336;12.612;2023-04-22T05:57:21;99563.03;;;13.36;47.28
60061;BME280;45933;51.336;12.612;2023-04-22T05:59:46;99562.81;;;13.43;47.39
60061;BME280;45933;51.336;12.612;2023-04-22T06:02:11;99560.94;;;13.48;47.12
60061;BME280;45933;51.336;12.612;2023-04-22T06:04:37;99563.44;;;13.53;46.58
60061;BME280;45933;51.336;12.612;2023-04-22T06:07:02;99558.88;;;13.61;46.64
60061;BME280;45933;51.336;12.612;2023-04-22T06:09:27;99550.88;;;13.67;46.65
60061;BME280;45933;51.336;12.612;2023-04-22T06:11:52;99557.59;;;13.76;46.41
60061;BME280;45933;51.336;12.612;2023-04-22T06:14:18;99560.19;;;13.77;46.41
60061;BME280;45933;51.336;12.612;2023-04-22T06:16:43;99562.59;;;13.85;46.45
60061;BME280;45933;51.336;12.612;2023-04-22T06:19:09;99553.69;;;13.92;46.33
60061;BME280;45933;51.336;12.612;2023-04-22T06:21:34;99561.38;;;13.97;46.18
60061;BME280;45933;51.336;12.612;2023-04-22T06:24:02;99564.66;;;14.05;46.31
60061;BME280;45933;51.336;12.612;2023-04-22T06:26:31;99566.31;;;14.09;46.57
60061;BME280;45933;51.336;12.612;2023-04-22T06:28:57;99565.28;;;14.15;46.30
60061;BME280;45933;51.336;12.612;2023-04-22T06:31:22;99559.81;;;14.22;45.84
60061;BME280;45933;51.336;12.612;2023-04-22T06:33:47;99566.69;;;14.26;46.05
60061;BME280;45933;51.336;12.612;2023-04-22T06:36:13;99569.19;;;14.31;45.40
60061;BME280;45933;51.336;12.612;2023-04-22T06:38:38;99554.16;;;14.36;46.33
60061;BME280;45933;51.336;12.612;2023-04-22T06:41:03;99558.25;;;14.45;46.27
60061;BME280;45933;51.336;12.612;2023-04-22T06:43:29;99559.91;;;14.50;45.61
60061;BME280;45933;51.336;12.612;2023-04-22T06:45:54;99554.47;;;14.56;46.05
60061;BME280;45933;51.336;12.612;2023-04-22T06:48:19;99549.84;;;14.64;45.73
60061;BME280;45933;51.336;12.612;2023-04-22T06:50:45;99550.56;;;14.70;45.72
60061;BME280;45933;51.336;12.612;2023-04-22T06:53:10;99550.34;;;14.76;45.46
60061;BME280;45933;51.336;12.612;2023-04-22T06:55:35;99549.22;;;14.84;45.56
60061;BME280;45933;51.336;12.612;2023-04-22T06:58:01;99540.25;;;14.91;45.82
60061;BME280;45933;51.336;12.612;2023-04-22T07:00:26;99545.19;;;15.01;45.38
60061;BME280;45933;51.336;12.612;2023-04-22T07:02:52;99548.59;;;15.04;45.58
60061;BME280;45933;51.336;12.612;2023-04-22T07:05:18;99551.81;;;15.12;45.78
60061;BME280;45933;51.336;12.612;2023-04-22T07:07:43;99549.00;;;15.19;45.60
60061;BME280;45933;51.336;12.612;2023-04-22T07:10:09;99548.69;;;15.28;45.60
60061;BME280;45933;51.336;12.612;2023-04-22T07:12:35;99548.53;;;15.32;45.94
60061;BME280;45933;51.336;12.612;2023-04-22T07:15:00;99547.31;;;15.42;45.30
60061;BME280;45933;51.336;12.612;2023-04-22T07:17:25;99544.44;;;15.50;45.10
60061;BME280;45933;51.336;12.612;2023-04-22T07:19:51;99540.75;;;15.56;44.95
60061;BME280;45933;51.336;12.612;2023-04-22T07:22:17;99544.00;;;15.64;44.88
60061;BME280;45933;51.336;12.612;2023-04-22T07:24:42;99529.00;;;15.67;44.70
60061;BME280;45933;51.336;12.612;2023-04-22T07:27:08;99539.22;;;15.75;43.46
60061;BME280;45933;51.336;12.612;2023-04-22T07:29:33;99530.94;;;15.86;43.45
60061;BME280;45933;51.336;12.612;2023-04-22T07:31:58;99534.00;;;15.99;44.96
60061;BME280;45933;51.336;12.612;2023-04-22T07:34:24;99540.69;;;16.07;45.50
60061;BME280;45933;51.336;12.612;2023-04-22T07:36:49;99542.03;;;16.19;44.14
60061;BME280;45933;51.336;12.612;2023-04-22T07:39:16;99543.50;;;16.26;45.00
60061;BME280;45933;51.336;12.612;2023-04-22T07:41:41;99539.63;;;16.36;44.20
60061;BME280;45933;51.336;12.612;2023-04-22T07:44:06;99540.22;;;16.43;43.83
60061;BME280;45933;51.336;12.612;2023-04-22T07:46:33;99537.13;;;16.55;43.43
60061;BME280;45933;51.336;12.612;2023-04-22T07:48:58;99540.31;;;16.63;43.28
60061;BME280;45933;51.336;12.612;2023-04-22T07:51:24;99532.91;;;16.75;43.74
60061;BME280;45933;51.336;12.612;2023-04-22T07:53:50;99530.75;;;16.84;45.22
60061;BME280;45933;51.336;12.612;2023-04-22T07:56:15;99525.13;;;16.93;44.27
60061;BME280;45933;51.336;12.612;2023-04-22T07:58:40;99527.25;;;17.06;43.47
60061;BME280;45933;51.336;12.612;2023-04-22T08:01:06;99522.41;;;17.17;44.40
60061;BME280;45933;51.336;12.612;2023-04-22T08:03:31;99519.97;;;17.33;45.33
60061;BME280;45933;51.336;12.612;2023-04-22T08:05:56;99523.47;;;17.54;46.52
60061;BME280;45933;51.336;12.612;2023-04-22T08:08:22;99531.22;;;17.79;45.63
60061;BME280;45933;51.336;12.612;2023-04-22T08:10:48;99521.09;;;18.09;43.43
60061;BME280;45933;51.336;12.612;2023-04-22T08:13:13;99517.88;;;18.40;42.25
60061;BME280;45933;51.336;12.612;2023-04-22T08:15:38;99511.47;;;18.83;41.76
60061;BME280;45933;51.336;12.612;2023-04-22T08:18:04;99507.78;;;19.22;40.28
60061;BME280;45933;51.336;12.612;2023-04-22T08:20:29;99508.47;;;19.62;40.79
60061;BME280;45933;51.336;12.612;2023-04-22T08:22:54;99500.19;;;20.01;40.43
60061;BME280;45933;51.336;12.612;2023-04-22T08:25:22;99499.22;;;20.35;38.01
60061;BME280;45933;51.336;12.612;2023-04-22T08:27:49;99501.63;;;20.71;36.75
60061;BME280;45933;51.336;12.612;2023-04-22T08:30:14;99507.41;;;21.09;38.32
60061;BME280;45933;51.336;12.612;2023-04-22T08:32:40;99503.66;;;21.44;37.93
60061;BME280;45933;51.336;12.612;2023-04-22T08:35:05;99501.13;;;21.56;33.68
60061;BME280;45933;51.336;12.612;2023-04-22T08:37:31;99500.31;;;21.84;33.61
60061;BME280;45933;51.336;12.612;2023-04-22T08:39:56;99491.03;;;22.06;33.54
60061;BME280;45933;51.336;12.612;2023-04-22T08:42:22;99494.75;;;22.17;33.38
60061;BME280;45933;51.336;12.612;2023-04-22T08:44:47;99497.75;;;22.40;33.59
60061;BME280;45933;51.336;12.612;2023-04-22T08:47:13;99491.28;;;22.58;32.32
60061;BME280;45933;51.336;12.612;2023-04-22T08:49:41;99496.16;;;22.79;33.75
60061;BME280;45933;51.336;12.612;2023-04-22T08:52:06;99497.06;;;22.92;32.50
60061;BME280;45933;51.336;12.612;2023-04-22T08:54:33;99485.66;;;23.17;33.38
60061;BME280;45933;51.336;12.612;2023-04-22T08:57:01;99478.69;;;23.41;33.13
60061;BME280;45933;51.336;12.612;2023-04-22T08:59:27;99479.56;;;23.42;30.77
60061;BME280;45933;51.336;12.612;2023-04-22T09:01:54;99481.50;;;23.65;30.68
60061;BME280;45933;51.336;12.612;2023-04-22T09:04:23;99479.28;;;23.85;31.40
60061;BME280;45933;51.336;12.612;2023-04-22T09:06:48;99474.78;;;23.98;31.70
60061;BME280;45933;51.336;12.612;2023-04-22T09:09:14;99480.09;;;24.11;30.19
60061;BME280;45933;51.336;12.612;2023-04-22T09:11:39;99466.22;;;24.18;28.85
60061;BME280;45933;51.336;12.612;2023-04-22T09:14:05;99470.03;;;24.40;30.59
60061;BME280;45933;51.336;12.612;2023-04-22T09:16:31;99461.50;;;24.47;30.91
60061;BME280;45933;51.336;12.612;2023-04-22T09:18:57;99464.78;;;24.51;29.99
60061;BME280;45933;51.336;12.612;2023-04-22T09:21:26;99459.19;;;24.67;29.06
60061;BME280;45933;51.336;12.612;2023-04-22T09:23:56;99450.84;;;24.71;29.41
60061;BME280;45933;51.336;12.612;2023-04-22T09:26:23;99458.28;;;24.79;28.82
60061;BME280;45933;51.336;12.612;2023-04-22T09:28:53;99452.88;;;24.92;29.30
60061;BME280;45933;51.336;12.612;2023-04-22T09:31:21;99449.88;;;24.96;29.27
60061;BME280;45933;51.336;12.612;2023-04-22T09:33:50;99443.56;;;25.10;29.29
60061;BME280;45933;51.336;12.612;2023-04-22T09:36:20;99453.78;;;25.27;30.36
60061;BME280;45933;51.336;12.612;2023-04-22T09:38:56;99444.56;;;25.32;29.83
60061;BME280;45933;51.336;12.612;2023-04-22T09:41:31;99448.47;;;25.39;29.25
60061;BME280;45933;51.336;12.612;2023-04-22T09:43:58;99439.28;;;25.54;29.87
60061;BME280;45933;51.336;12.612;2023-04-22T09:46:25;99434.56;;;25.58;27.54
60061;BME280;45933;51.336;12.612;2023-04-22T09:48:51;99435.94;;;25.74;28.67
60061;BME280;45933;51.336;12.612;2023-04-22T09:51:18;99434.47;;;25.81;29.19
60061;BME280;45933;51.336;12.612;2023-04-22T09:53:45;99441.75;;;25.79;28.47
60061;BME280;45933;51.336;12.612;2023-04-22T09:56:20;99424.63;;;25.93;27.42
60061;BME280;45933;51.336;12.612;2023-04-22T09:58:51;99428.53;;;26.00;27.26
60061;BME280;45933;51.336;12.612;2023-04-22T10:01:18;99420.75;;;26.08;27.27
60061;BME280;45933;51.336;12.612;2023-04-22T10:03:43;99425.47;;;26.27;29.54
60061;BME280;45933;51.336;12.612;2023-04-22T10:06:09;99423.13;;;26.45;29.14
60061;BME280;45933;51.336;12.612;2023-04-22T10:08:35;99430.53;;;26.53;27.17
60061;BME280;45933;51.336;12.612;2023-04-22T10:11:00;99424.03;;;26.67;26.78
60061;BME280;45933;51.336;12.612;2023-04-22T10:13:26;99423.94;;;26.89;27.68
60061;BME280;45933;51.336;12.612;2023-04-22T10:15:52;99420.00;;;27.04;28.42
60061;BME280;45933;51.336;12.612;2023-04-22T10:18:22;99420.56;;;27.19;27.19
60061;BME280;45933;51.336;12.612;2023-04-22T10:20:49;99423.50;;;27.16;27.16
60061;BME280;45933;51.336;12.612;2023-04-22T10:23:19;99418.91;;;27.49;27.40
60061;BME280;45933;51.336;12.612;2023-04-22T10:26:04;99415.75;;;27.65;27.79
60061;BME280;45933;51.336;12.612;2023-04-22T10:28:29;99412.25;;;27.64;27.23
60061;BME280;45933;51.336;12.612;2023-04-22T10:30:55;99410.78;;;27.81;27.41
60061;BME280;45933;51.336;12.612;2023-04-22T10:38:40;99412.00;;;28.07;26.42
60061;BME280;45933;51.336;12.612;2023-04-22T10:41:12;99404.22;;;28.35;28.43
60061;BME280;45933;51.336;12.612;2023-04-22T10:43:46;99405.91;;;28.46;26.54
60061;BME280;45933;51.336;12.612;2023-04-22T10:49:18;99396.50;;;28.71;25.98
60061;BME280;45933;51.336;12.612;2023-04-22T10:51:56;99390.97;;;28.72;25.12
60061;BME280;45933;51.336;12.612;2023-04-22T10:57:04;99389.88;;;28.94;25.48
60061;BME280;45933;51.336;12.612;2023-04-22T10:59:31;99383.09;;;28.80;24.79
60061;BME280;45933;51.336;12.612;2023-04-22T11:02:07;99380.25;;;28.82;24.60
60061;BME280;45933;51.336;12.612;2023-04-22T11:04:33;99370.53;;;28.90;25.12
60061;BME280;45933;51.336;12.612;2023-04-22T11:09:43;99370.38;;;28.92;24.31
60061;BME280;45933;51.336;12.612;2023-04-22T11:15:13;99367.41;;;28.85;21.91
60061;BME280;45933;51.336;12.612;2023-04-22T11:17:41;99362.19;;;29.03;22.72
60061;BME280;45933;51.336;12.612;2023-04-22T11:20:07;99355.13;;;29.12;22.38
60061;BME280;45933;51.336;12.612;2023-04-22T11:22:36;99347.50;;;29.07;22.23
60061;BME280;45933;51.336;12.612;2023-04-22T11:25:03;99355.84;;;28.85;19.85
60061;BME280;45933;51.336;12.612;2023-04-22T11:27:29;99354.28;;;28.82;20.26
60061;BME280;45933;51.336;12.612;2023-04-22T11:30:12;99365.84;;;28.83;20.57
60061;BME280;45933;51.336;12.612;2023-04-22T11:32:41;99357.09;;;28.61;19.75
60061;BME280;45933;51.336;12.612;2023-04-22T11:35:08;99350.34;;;28.77;21.59
60061;BME280;45933;51.336;12.612;2023-04-22T11:37:43;99356.28;;;28.71;19.92
60061;BME280;45933;51.336;12.612;2023-04-22T11:40:11;99353.16;;;28.65;19.70
60061;BME280;45933;51.336;12.612;2023-04-22T11:42:37;99347.22;;;28.52;20.62
60061;BME280;45933;51.336;12.612;2023-04-22T11:45:04;99339.91;;;28.54;19.74
60061;BME280;45933;51.336;12.612;2023-04-22T11:47:29;99337.06;;;28.65;21.32
60061;BME280;45933;51.336;12.612;2023-04-22T11:50:13;99344.41;;;28.54;19.44
60061;BME280;45933;51.336;12.612;2023-04-22T11:55:26;99338.34;;;28.81;20.04
60061;BME280;45933;51.336;12.612;2023-04-22T11:57:59;99342.44;;;28.85;21.21
60061;BME280;45933;51.336;12.612;2023-04-22T12:00:36;99336.34;;;28.92;21.79
60061;BME280;45933;51.336;12.612;2023-04-22T12:03:17;99346.50;;;28.89;20.03
60061;BME280;45933;51.336;12.612;2023-04-22T12:05:46;99339.75;;;28.95;20.22
60061;BME280;45933;51.336;12.612;2023-04-22T12:08:13;99337.19;;;29.12;22.00
60061;BME280;45933;51.336;12.612;2023-04-22T12:10:54;99335.31;;;29.23;21.86
60061;BME280;45933;51.336;12.612;2023-04-22T12:13:22;99328.97;;;29.24;20.73
60061;BME280;45933;51.336;12.612;2023-04-22T12:15:48;99331.38;;;29.27;20.40
60061;BME280;45933;51.336;12.612;2023-04-22T12:18:13;99328.91;;;29.43;19.97
60061;BME280;45933;51.336;12.612;2023-04-22T12:20:39;99324.91;;;29.47;20.59
60061;BME280;45933;51.336;12.612;2023-04-22T12:23:11;99328.59;;;29.46;21.22
60061;BME280;45933;51.336;12.612;2023-04-22T12:25:37;99327.47;;;29.49;20.27
60061;BME280;45933;51.336;12.612;2023-04-22T12:28:03;99316.41;;;29.61;20.08
60061;BME280;45933;51.336;12.612;2023-04-22T12:30:28;99321.22;;;29.58;20.15
60061;BME280;45933;51.336;12.612;2023-04-22T12:32:53;99318.81;;;29.64;19.67
60061;BME280;45933;51.336;12.612;2023-04-22T12:35:19;99307.63;;;29.69;20.34
60061;BME280;45933;51.336;12.612;2023-04-22T12:37:48;99306.22;;;29.65;19.48
60061;BME280;45933;51.336;12.612;2023-04-22T12:40:13;99307.81;;;29.48;19.41
60061;BME280;45933;51.336;12.612;2023-04-22T12:42:38;99298.00;;;29.66;20.15
60061;BME280;45933;51.336;12.612;2023-04-22T12:45:04;99296.00;;;29.68;20.80
60061;BME280;45933;51.336;12.612;2023-04-22T12:47:29;99292.47;;;29.68;20.84
60061;BME280;45933;51.336;12.612;2023-04-22T12:49:55;99301.44;;;29.59;20.59
60061;BME280;45933;51.336;12.612;2023-04-22T12:52:22;99292.56;;;29.49;19.23
60061;BME280;45933;51.336;12.612;2023-04-22T12:54:47;99293.84;;;29.44;20.01
60061;BME280;45933;51.336;12.612;2023-04-22T12:57:13;99285.03;;;29.52;19.44
60061;BME280;45933;51.336;12.612;2023-04-22T12:59:38;99283.19;;;29.53;20.41
60061;BME280;45933;51.336;12.612;2023-04-22T13:02:03;99271.34;;;29.55;20.59
60061;BME280;45933;51.336;12.612;2023-04-22T13:04:28;99268.00;;;29.53;18.69